sensor_id;sensor_type;location;lat;lon;timestamp;pressure;altitude;pressure_sealevel;temperature;humidity
17054;BME280;8643;48.824;11.422;2022-08-01T00:00:09;96889.78;;;16.68;90.43
17054;BME280;8643;48.824;11.422;2022-08-01T00:02:39;96885.44;;;16.67;90.13
17054;BME280;8643;48.824;11.422;2022-08-01T00:05:08;96893.75;;;16.67;90.99
17054;BME280;8643;48.824;11.422;2022-08-01T00:07:38;96885.41;;;16.64;90.57
17054;BME280;8643;48.824;11.422;2022-08-01T00:10:10;96892.19;;;16.70;89.49
17054;BME280;8643;48.824;11.422;2022-08-01T00:12:40;96893.28;;;16.65;90.21
17054;BME280;8643;48.824;11.422;2022-08-01T00:15:12;96888.53;;;16.62;90.44
17054;BME280;8643;48.824;11.422;2022-08-01T00:17:41;96886.16;;;16.61;91.13
17054;BME280;8643;48.824;11.422;2022-08-01T00:20:12;96886.16;;;16.61;91.41
17054;BME280;8643;48.824;11.422;2022-08-01T00:22:42;96888.59;;;16.66;91.43
17054;BME280;8643;48.824;11.422;2022-08-01T00:25:10;96888.22;;;16.67;92.39
17054;BME280;8643;48.824;11.422;2022-08-01T00:27:39;96894.47;;;16.64;92.29
17054;BME280;8643;48.824;11.422;2022-08-01T00:30:08;96891.75;;;16.68;92.83
17054;BME280;8643;48.824;11.422;2022-08-01T00:32:41;96885.78;;;16.62;91.65
17054;BME280;8643;48.824;11.422;2022-08-01T00:35:10;96886.88;;;16.58;91.84
17054;BME280;8643;48.824;11.422;2022-08-01T00:37:41;96886.75;;;16.50;91.22
17054;BME280;8643;48.824;11.422;2022-08-01T00:40:11;96889.47;;;16.47;89.85
17054;BME280;8643;48.824;11.422;2022-08-01T00:42:39;96892.56;;;16.42;91.34
17054;BME280;8643;48.824;11.422;2022-08-01T00:45:10;96888.94;;;16.38;93.34
17054;BME280;8643;48.824;11.422;2022-08-01T00:47:40;96893.19;;;16.31;93.20
17054;BME280;8643;48.824;11.422;2022-08-01T00:50:10;96884.69;;;16.17;91.70
17054;BME280;8643;48.824;11.422;2022-08-01T00:52:41;96880.44;;;16.00;91.88
17054;BME280;8643;48.824;11.422;2022-08-01T00:55:19;96886.59;;;15.90;89.74
17054;BME280;8643;48.824;11.422;2022-08-01T00:57:48;96883.25;;;15.81;90.63
17054;BME280;8643;48.824;11.422;2022-08-01T01:00:31;96881.63;;;15.76;90.15
17054;BME280;8643;48.824;11.422;2022-08-01T01:03:20;96883.53;;;15.75;89.75
17054;BME280;8643;48.824;11.422;2022-08-01T01:06:14;96875.78;;;15.81;91.91
17054;BME280;8643;48.824;11.422;2022-08-01T01:08:58;96879.53;;;15.92;93.39
17054;BME280;8643;48.824;11.422;2022-08-01T01:11:42;96880.44;;;16.00;94.54
17054;BME280;8643;48.824;11.422;2022-08-01T01:14:23;96878.25;;;16.09;95.59
17054;BME280;8643;48.824;11.422;2022-08-01T01:16:57;96879.16;;;16.17;95.39
17054;BME280;8643;48.824;11.422;2022-08-01T01:19:31;96886.34;;;16.22;95.33
17054;BME280;8643;48.824;11.422;2022-08-01T01:22:22;96895.03;;;16.24;95.00
17054;BME280;8643;48.824;11.422;2022-08-01T01:25:17;96883.63;;;16.25;95.89
17054;BME280;8643;48.824;11.422;2022-08-01T01:27:58;96889.25;;;16.33;95.62
17054;BME280;8643;48.824;11.422;2022-08-01T01:30:32;96895.28;;;16.38;95.94
17054;BME280;8643;48.824;11.422;2022-08-01T01:33:06;96886.50;;;16.33;96.02
17054;BME280;8643;48.824;11.422;2022-08-01T01:35:38;96889.25;;;16.33;96.00
17054;BME280;8643;48.824;11.422;2022-08-01T01:38:17;96893.94;;;16.28;96.23
17054;BME280;8643;48.824;11.422;2022-08-01T01:40:47;96891.41;;;16.20;95.62
17054;BME280;8643;48.824;11.422;2022-08-01T01:43:17;96894.84;;;16.13;96.01
17054;BME280;8643;48.824;11.422;2022-08-01T01:45:49;96893.59;;;16.07;96.72
17054;BME280;8643;48.824;11.422;2022-08-01T01:48:21;96904.19;;;16.05;97.01
17054;BME280;8643;48.824;11.422;2022-08-01T01:50:53;96900.13;;;15.99;97.02
17054;BME280;8643;48.824;11.422;2022-08-01T01:53:24;96902.78;;;15.91;96.95
17054;BME280;8643;48.824;11.422;2022-08-01T01:55:57;96896.47;;;15.91;97.52
17054;BME280;8643;48.824;11.422;2022-08-01T01:58:29;96901.53;;;15.89;97.77
17054;BME280;8643;48.824;11.422;2022-08-01T02:01:02;96906.69;;;15.90;98.05
17054;BME280;8643;48.824;11.422;2022-08-01T02:03:42;96904.41;;;15.92;98.53
17054;BME280;8643;48.824;11.422;2022-08-01T02:06:14;96904.44;;;15.96;98.29
17054;BME280;8643;48.824;11.422;2022-08-01T02:08:45;96907.22;;;15.96;98.91
17054;BME280;8643;48.824;11.422;2022-08-01T02:11:15;96908.50;;;16.02;98.39
17054;BME280;8643;48.824;11.422;2022-08-01T02:13:53;96909.72;;;16.05;98.31
17054;BME280;8643;48.824;11.422;2022-08-01T02:16:26;96910.97;;;16.07;98.21
17054;BME280;8643;48.824;11.422;2022-08-01T02:18:56;96912.25;;;16.13;98.24
17054;BME280;8643;48.824;11.422;2022-08-01T02:21:32;96911.72;;;16.31;97.25
17054;BME280;8643;48.824;11.422;2022-08-01T02:27:01;96911.94;;;16.95;93.62
17054;BME280;8643;48.824;11.422;2022-08-01T02:29:40;96913.66;;;17.37;91.63
17054;BME280;8643;48.824;11.422;2022-08-01T02:32:20;96920.25;;;17.63;88.48
17054;BME280;8643;48.824;11.422;2022-08-01T02:34:53;96924.00;;;17.78;87.05
17054;BME280;8643;48.824;11.422;2022-08-01T02:37:28;96922.53;;;17.88;87.70
17054;BME280;8643;48.824;11.422;2022-08-01T02:40:00;96929.00;;;17.99;86.37
17054;BME280;8643;48.824;11.422;2022-08-01T02:42:30;96922.25;;;18.00;86.83
17054;BME280;8643;48.824;11.422;2022-08-01T02:45:02;96921.59;;;18.14;85.37
17054;BME280;8643;48.824;11.422;2022-08-01T02:47:33;96916.09;;;18.18;85.34
17054;BME280;8643;48.824;11.422;2022-08-01T02:50:06;96920.88;;;18.21;84.88
17054;BME280;8643;48.824;11.422;2022-08-01T02:52:35;96919.63;;;18.14;84.49
17054;BME280;8643;48.824;11.422;2022-08-01T02:55:06;96916.00;;;18.10;84.48
17054;BME280;8643;48.824;11.422;2022-08-01T02:57:38;96917.94;;;18.03;84.75
17054;BME280;8643;48.824;11.422;2022-08-01T03:00:18;96920.31;;;18.04;84.05
17054;BME280;8643;48.824;11.422;2022-08-01T03:02:53;96930.22;;;18.05;82.66
17054;BME280;8643;48.824;11.422;2022-08-01T03:05:24;96921.47;;;18.00;83.81
17054;BME280;8643;48.824;11.422;2022-08-01T03:07:55;96926.03;;;17.85;84.27
17054;BME280;8643;48.824;11.422;2022-08-01T03:10:31;96928.09;;;17.88;84.83
17054;BME280;8643;48.824;11.422;2022-08-01T03:13:02;96924.97;;;17.93;83.66
17054;BME280;8643;48.824;11.422;2022-08-01T03:15:38;96935.22;;;17.92;83.09
17054;BME280;8643;48.824;11.422;2022-08-01T03:18:10;96932.88;;;17.57;85.75
17054;BME280;8643;48.824;11.422;2022-08-01T03:20:41;96921.63;;;17.12;87.28
17054;BME280;8643;48.824;11.422;2022-08-01T03:23:12;96929.22;;;16.65;88.62
17054;BME280;8643;48.824;11.422;2022-08-01T03:25:43;96924.84;;;16.38;90.06
17054;BME280;8643;48.824;11.422;2022-08-01T03:28:14;96933.63;;;16.17;91.64
17054;BME280;8643;48.824;11.422;2022-08-01T03:30:45;96932.91;;;16.00;91.72
17054;BME280;8643;48.824;11.422;2022-08-01T03:33:15;96935.13;;;15.91;91.52
17054;BME280;8643;48.824;11.422;2022-08-01T03:35:49;96935.34;;;15.82;93.21
17054;BME280;8643;48.824;11.422;2022-08-01T03:38:24;96928.38;;;15.69;93.49
17054;BME280;8643;48.824;11.422;2022-08-01T03:40:57;96935.16;;;15.52;94.84
17054;BME280;8643;48.824;11.422;2022-08-01T03:43:34;96934.44;;;15.35;94.07
17054;BME280;8643;48.824;11.422;2022-08-01T03:46:09;96942.19;;;15.30;95.00
17054;BME280;8643;48.824;11.422;2022-08-01T03:48:42;96943.94;;;15.38;94.73
17054;BME280;8643;48.824;11.422;2022-08-01T03:51:13;96947.78;;;15.33;94.19
17054;BME280;8643;48.824;11.422;2022-08-01T03:53:45;96957.06;;;15.25;95.57
17054;BME280;8643;48.824;11.422;2022-08-01T03:56:18;96942.84;;;15.23;96.29
17054;BME280;8643;48.824;11.422;2022-08-01T03:58:47;96952.38;;;15.26;96.85
17054;BME280;8643;48.824;11.422;2022-08-01T04:01:17;96948.25;;;15.35;96.19
17054;BME280;8643;48.824;11.422;2022-08-01T04:03:48;96947.34;;;15.51;96.52
17054;BME280;8643;48.824;11.422;2022-08-01T04:06:16;96942.13;;;15.65;94.85
17054;BME280;8643;48.824;11.422;2022-08-01T04:08:45;96952.91;;;15.74;96.83
17054;BME280;8643;48.824;11.422;2022-08-01T04:11:25;96950.34;;;15.81;96.50
17054;BME280;8643;48.824;11.422;2022-08-01T04:13:54;96949.00;;;15.94;95.03
17054;BME280;8643;48.824;11.422;2022-08-01T04:16:25;96951.00;;;16.44;93.21
17054;BME280;8643;48.824;11.422;2022-08-01T04:18:54;96953.75;;;16.90;91.42
17054;BME280;8643;48.824;11.422;2022-08-01T04:21:26;96952.28;;;17.30;87.01
17054;BME280;8643;48.824;11.422;2022-08-01T04:24:02;96955.47;;;17.63;85.61
17054;BME280;8643;48.824;11.422;2022-08-01T04:26:33;96950.16;;;17.84;83.22
17054;BME280;8643;48.824;11.422;2022-08-01T04:29:04;96962.25;;;18.03;83.17
17054;BME280;8643;48.824;11.422;2022-08-01T04:31:36;96968.31;;;18.16;82.42
17054;BME280;8643;48.824;11.422;2022-08-01T04:34:07;96970.00;;;18.27;81.14
17054;BME280;8643;48.824;11.422;2022-08-01T04:36:38;96981.59;;;18.37;80.03
17054;BME280;8643;48.824;11.422;2022-08-01T04:39:09;96973.72;;;18.42;79.51
17054;BME280;8643;48.824;11.422;2022-08-01T04:41:39;96979.66;;;18.44;78.73
17054;BME280;8643;48.824;11.422;2022-08-01T04:44:08;96986.84;;;18.53;80.26
17054;BME280;8643;48.824;11.422;2022-08-01T04:46:37;96993.28;;;18.64;79.06
17054;BME280;8643;48.824;11.422;2022-08-01T04:49:08;96990.53;;;18.67;78.35
17054;BME280;8643;48.824;11.422;2022-08-01T04:51:50;96991.41;;;18.75;78.31
17054;BME280;8643;48.824;11.422;2022-08-01T04:54:19;96999.34;;;18.77;78.30
17054;BME280;8643;48.824;11.422;2022-08-01T04:56:48;97002.56;;;18.82;80.31
17054;BME280;8643;48.824;11.422;2022-08-01T04:59:17;97002.25;;;18.88;79.38
17054;BME280;8643;48.824;11.422;2022-08-01T05:02:03;96999.47;;;18.88;78.17
17054;BME280;8643;48.824;11.422;2022-08-01T05:04:33;97005.88;;;18.99;78.46
17054;BME280;8643;48.824;11.422;2022-08-01T05:07:02;97015.41;;;19.05;78.31
17054;BME280;8643;48.824;11.422;2022-08-01T05:09:31;97015.13;;;19.17;77.45
17054;BME280;8643;48.824;11.422;2022-08-01T05:12:00;97019.59;;;19.33;78.79
17054;BME280;8643;48.824;11.422;2022-08-01T05:14:30;97014.91;;;19.51;76.85
17054;BME280;8643;48.824;11.422;2022-08-01T05:17:00;97013.78;;;19.67;75.69
17054;BME280;8643;48.824;11.422;2022-08-01T05:19:30;97011.94;;;19.85;75.33
17054;BME280;8643;48.824;11.422;2022-08-01T05:22:02;97022.28;;;20.03;75.68
17054;BME280;8643;48.824;11.422;2022-08-01T05:24:32;97023.13;;;20.14;76.61
17054;BME280;8643;48.824;11.422;2022-08-01T05:27:02;97016.03;;;20.35;74.02
17054;BME280;8643;48.824;11.422;2022-08-01T05:29:33;97022.41;;;20.49;73.95
17054;BME280;8643;48.824;11.422;2022-08-01T05:32:06;97016.84;;;20.60;72.69
17054;BME280;8643;48.824;11.422;2022-08-01T05:34:35;97023.25;;;20.79;72.41
17054;BME280;8643;48.824;11.422;2022-08-01T05:37:05;97022.44;;;20.85;72.25
17054;BME280;8643;48.824;11.422;2022-08-01T05:39:34;97024.03;;;20.90;72.28
17054;BME280;8643;48.824;11.422;2022-08-01T05:42:02;97030.38;;;20.91;71.73
17054;BME280;8643;48.824;11.422;2022-08-01T05:44:31;97024.03;;;20.94;72.24
17054;BME280;8643;48.824;11.422;2022-08-01T05:46:59;97028.00;;;20.82;71.75
17054;BME280;8643;48.824;11.422;2022-08-01T05:49:29;97030.38;;;20.73;72.39
17054;BME280;8643;48.824;11.422;2022-08-01T05:51:57;97022.84;;;20.69;72.99
17054;BME280;8643;48.824;11.422;2022-08-01T05:54:29;97027.22;;;20.71;72.48
17054;BME280;8643;48.824;11.422;2022-08-01T05:56:58;97027.63;;;20.76;72.90
17054;BME280;8643;48.824;11.422;2022-08-01T05:59:29;97024.44;;;20.78;74.81
17054;BME280;8643;48.824;11.422;2022-08-01T06:01:57;97023.63;;;20.81;73.10
17054;BME280;8643;48.824;11.422;2022-08-01T06:04:25;97033.19;;;20.76;72.43
17054;BME280;8643;48.824;11.422;2022-08-01T06:06:54;97035.97;;;20.76;72.43
17054;BME280;8643;48.824;11.422;2022-08-01T06:09:22;97037.16;;;20.90;72.64
17054;BME280;8643;48.824;11.422;2022-08-01T06:11:51;97039.56;;;21.05;71.97
17054;BME280;8643;48.824;11.422;2022-08-01T06:14:19;97044.28;;;21.30;71.00
17054;BME280;8643;48.824;11.422;2022-08-01T06:16:48;97049.44;;;21.28;71.22
17054;BME280;8643;48.824;11.422;2022-08-01T06:19:16;97051.06;;;21.29;71.04
17054;BME280;8643;48.824;11.422;2022-08-01T06:21:45;97050.63;;;21.52;70.69
17054;BME280;8643;48.824;11.422;2022-08-01T06:24:13;97062.13;;;21.76;72.80
17054;BME280;8643;48.824;11.422;2022-08-01T06:26:41;97063.28;;;21.82;69.31
17054;BME280;8643;48.824;11.422;2022-08-01T06:29:10;97062.53;;;21.74;68.93
17054;BME280;8643;48.824;11.422;2022-08-01T06:31:40;97062.84;;;21.94;70.34
17054;BME280;8643;48.824;11.422;2022-08-01T06:34:08;97065.28;;;21.89;69.55
17054;BME280;8643;48.824;11.422;2022-08-01T06:36:36;97058.91;;;21.85;69.50
17054;BME280;8643;48.824;11.422;2022-08-01T06:39:04;97071.59;;;21.93;70.14
17054;BME280;8643;48.824;11.422;2022-08-01T06:41:32;97069.09;;;22.24;69.57
17054;BME280;8643;48.824;11.422;2022-08-01T06:44:00;97067.44;;;22.37;68.81
17054;BME280;8643;48.824;11.422;2022-08-01T06:46:32;97068.38;;;22.09;69.24
17054;BME280;8643;48.824;11.422;2022-08-01T06:49:02;97072.28;;;22.33;68.69
17054;BME280;8643;48.824;11.422;2022-08-01T06:51:30;97067.78;;;22.50;67.37
17054;BME280;8643;48.824;11.422;2022-08-01T06:53:58;97073.34;;;22.57;67.59
17054;BME280;8643;48.824;11.422;2022-08-01T06:56:26;97073.66;;;22.66;72.42
17054;BME280;8643;48.824;11.422;2022-08-01T06:58:55;97072.38;;;22.82;68.25
17054;BME280;8643;48.824;11.422;2022-08-01T07:01:27;97075.50;;;22.87;67.22
17054;BME280;8643;48.824;11.422;2022-08-01T07:04:02;97073.41;;;22.99;66.45
17054;BME280;8643;48.824;11.422;2022-08-01T07:06:31;97076.94;;;23.10;66.75
17054;BME280;8643;48.824;11.422;2022-08-01T07:08:59;97076.88;;;23.21;68.43
17054;BME280;8643;48.824;11.422;2022-08-01T07:11:36;97080.09;;;23.16;68.61
17054;BME280;8643;48.824;11.422;2022-08-01T07:14:04;97074.19;;;23.48;65.01
17054;BME280;8643;48.824;11.422;2022-08-01T07:16:33;97080.34;;;23.74;67.43
17054;BME280;8643;48.824;11.422;2022-08-01T07:19:02;97072.81;;;23.67;68.34
17054;BME280;8643;48.824;11.422;2022-08-01T07:21:31;97074.53;;;23.95;67.65
17054;BME280;8643;48.824;11.422;2022-08-01T07:24:09;97068.47;;;24.31;63.53
17054;BME280;8643;48.824;11.422;2022-08-01T07:26:41;97074.97;;;24.56;62.59
17054;BME280;8643;48.824;11.422;2022-08-01T07:29:22;97080.00;;;24.95;61.43
17054;BME280;8643;48.824;11.422;2022-08-01T07:31:51;97073.28;;;25.40;59.55
17054;BME280;8643;48.824;11.422;2022-08-01T07:34:21;97067.78;;;25.76;57.43
17054;BME280;8643;48.824;11.422;2022-08-01T07:36:50;97068.00;;;25.66;60.76
17054;BME280;8643;48.824;11.422;2022-08-01T07:39:18;97060.63;;;25.75;60.29
17054;BME280;8643;48.824;11.422;2022-08-01T07:41:47;97064.41;;;25.18;58.63
17054;BME280;8643;48.824;11.422;2022-08-01T07:44:34;97075.78;;;25.34;58.33
17054;BME280;8643;48.824;11.422;2022-08-01T07:47:03;97065.53;;;25.48;58.28
17054;BME280;8643;48.824;11.422;2022-08-01T07:49:33;97058.47;;;25.39;58.36
17054;BME280;8643;48.824;11.422;2022-08-01T07:52:07;97064.69;;;25.51;58.16
17054;BME280;8643;48.824;11.422;2022-08-01T07:54:36;97061.88;;;25.51;57.11
17054;BME280;8643;48.824;11.422;2022-08-01T07:57:04;97063.94;;;25.47;56.80
17054;BME280;8643;48.824;11.422;2022-08-01T07:59:33;97068.84;;;24.92;59.43
17054;BME280;8643;48.824;11.422;2022-08-01T08:02:01;97063.78;;;25.34;58.19
17054;BME280;8643;48.824;11.422;2022-08-01T08:04:30;97062.13;;;25.80;56.49
17054;BME280;8643;48.824;11.422;2022-08-01T08:07:00;97072.28;;;26.14;57.19
17054;BME280;8643;48.824;11.422;2022-08-01T08:09:29;97064.47;;;26.62;56.49
17054;BME280;8643;48.824;11.422;2022-08-01T08:12:04;97062.06;;;27.13;55.64
17054;BME280;8643;48.824;11.422;2022-08-01T08:14:33;97057.81;;;26.72;53.84
17054;BME280;8643;48.824;11.422;2022-08-01T08:17:02;97053.75;;;26.57;53.52
17054;BME280;8643;48.824;11.422;2022-08-01T08:19:31;97055.88;;;25.92;54.93
17054;BME280;8643;48.824;11.422;2022-08-01T08:22:06;97057.88;;;25.28;57.09
17054;BME280;8643;48.824;11.422;2022-08-01T08:24:37;97052.97;;;25.09;57.28
17054;BME280;8643;48.824;11.422;2022-08-01T08:27:13;97046.34;;;24.99;57.43
17054;BME280;8643;48.824;11.422;2022-08-01T08:29:42;97056.03;;;25.85;54.66
17054;BME280;8643;48.824;11.422;2022-08-01T08:32:11;97049.69;;;26.58;53.04
17054;BME280;8643;48.824;11.422;2022-08-01T08:34:39;97049.16;;;26.83;51.84
17054;BME280;8643;48.824;11.422;2022-08-01T08:37:09;97051.19;;;25.86;56.62
17054;BME280;8643;48.824;11.422;2022-08-01T08:39:38;97051.56;;;25.88;54.17
17054;BME280;8643;48.824;11.422;2022-08-01T08:42:10;97053.53;;;26.11;54.67
17054;BME280;8643;48.824;11.422;2022-08-01T08:44:41;97055.84;;;26.52;53.04
17054;BME280;8643;48.824;11.422;2022-08-01T08:47:13;97053.63;;;26.24;53.60
17054;BME280;8643;48.824;11.422;2022-08-01T08:49:47;97055.03;;;27.21;51.58
17054;BME280;8643;48.824;11.422;2022-08-01T08:52:20;97063.94;;;25.90;54.00
17054;BME280;8643;48.824;11.422;2022-08-01T08:54:51;97066.78;;;24.96;57.10
17054;BME280;8643;48.824;11.422;2022-08-01T08:57:21;97052.13;;;25.35;56.42
17054;BME280;8643;48.824;11.422;2022-08-01T08:59:50;97059.38;;;26.37;56.01
17054;BME280;8643;48.824;11.422;2022-08-01T09:02:21;97058.03;;;26.81;52.60
17054;BME280;8643;48.824;11.422;2022-08-01T09:04:50;97056.13;;;26.58;51.96
17054;BME280;8643;48.824;11.422;2022-08-01T09:07:20;97056.16;;;26.75;50.21
17054;BME280;8643;48.824;11.422;2022-08-01T09:09:50;97053.34;;;25.58;52.71
17054;BME280;8643;48.824;11.422;2022-08-01T09:12:18;97064.94;;;25.36;55.52
17054;BME280;8643;48.824;11.422;2022-08-01T09:14:48;97058.94;;;25.58;53.23
17054;BME280;8643;48.824;11.422;2022-08-01T09:17:20;97054.31;;;26.11;55.46
17054;BME280;8643;48.824;11.422;2022-08-01T09:19:53;97061.41;;;26.36;51.74
17054;BME280;8643;48.824;11.422;2022-08-01T09:22:32;97060.66;;;25.52;56.44
17054;BME280;8643;48.824;11.422;2022-08-01T09:25:05;97055.03;;;27.21;49.22
17054;BME280;8643;48.824;11.422;2022-08-01T09:27:36;97063.38;;;26.56;50.85
17054;BME280;8643;48.824;11.422;2022-08-01T09:30:19;97064.84;;;27.63;48.23
17054;BME280;8643;48.824;11.422;2022-08-01T09:32:57;97064.13;;;28.04;47.75
17054;BME280;8643;48.824;11.422;2022-08-01T09:35:30;97064.63;;;28.28;46.00
17054;BME280;8643;48.824;11.422;2022-08-01T09:38:17;97069.78;;;26.56;50.38
17054;BME280;8643;48.824;11.422;2022-08-01T09:40:51;97063.69;;;26.05;51.06
17054;BME280;8643;48.824;11.422;2022-08-01T09:43:22;97060.69;;;25.92;51.95
17054;BME280;8643;48.824;11.422;2022-08-01T09:45:51;97059.09;;;25.91;51.60
17054;BME280;8643;48.824;11.422;2022-08-01T09:48:22;97057.47;;;25.93;50.62
17054;BME280;8643;48.824;11.422;2022-08-01T09:50:56;97057.88;;;25.72;51.15
17054;BME280;8643;48.824;11.422;2022-08-01T09:53:47;97062.41;;;25.86;49.35
17054;BME280;8643;48.824;11.422;2022-08-01T09:56:21;97064.16;;;26.76;47.40
17054;BME280;8643;48.824;11.422;2022-08-01T09:58:55;97061.44;;;28.13;45.95
17054;BME280;8643;48.824;11.422;2022-08-01T10:01:29;97058.56;;;29.46;42.92
17054;BME280;8643;48.824;11.422;2022-08-01T10:04:11;97055.22;;;29.12;42.04
17054;BME280;8643;48.824;11.422;2022-08-01T10:06:43;97060.25;;;27.69;44.28
17054;BME280;8643;48.824;11.422;2022-08-01T10:09:13;97058.88;;;27.28;45.61
17054;BME280;8643;48.824;11.422;2022-08-01T10:11:43;97055.47;;;27.20;45.28
17054;BME280;8643;48.824;11.422;2022-08-01T10:14:12;97052.22;;;26.88;46.87
17054;BME280;8643;48.824;11.422;2022-08-01T10:16:45;97056.16;;;28.70;44.61
17054;BME280;8643;48.824;11.422;2022-08-01T10:19:25;97047.69;;;29.57;43.55
17054;BME280;8643;48.824;11.422;2022-08-01T10:21:56;97047.03;;;29.88;41.58
17054;BME280;8643;48.824;11.422;2022-08-01T10:24:30;97054.97;;;30.02;43.37
17054;BME280;8643;48.824;11.422;2022-08-01T10:27:05;97048.06;;;31.38;39.27
17054;BME280;8643;48.824;11.422;2022-08-01T10:29:40;97039.13;;;32.23;41.25
17054;BME280;8643;48.824;11.422;2022-08-01T10:32:26;97039.78;;;32.18;39.36
17054;BME280;8643;48.824;11.422;2022-08-01T10:34:57;97034.09;;;31.43;37.95
17054;BME280;8643;48.824;11.422;2022-08-01T10:37:34;97030.19;;;30.50;39.54
17054;BME280;8643;48.824;11.422;2022-08-01T10:40:20;97022.78;;;31.34;37.79
17054;BME280;8643;48.824;11.422;2022-08-01T10:42:57;97036.38;;;29.92;40.74
17054;BME280;8643;48.824;11.422;2022-08-01T10:45:27;97036.47;;;30.01;40.64
17054;BME280;8643;48.824;11.422;2022-08-01T10:48:03;97039.28;;;30.01;41.94
17054;BME280;8643;48.824;11.422;2022-08-01T10:50:42;97028.28;;;29.94;43.97
17054;BME280;8643;48.824;11.422;2022-08-01T10:53:17;97024.38;;;29.43;43.00
17054;BME280;8643;48.824;11.422;2022-08-01T10:56:02;97027.88;;;27.93;44.53
17054;BME280;8643;48.824;11.422;2022-08-01T10:58:35;97036.25;;;28.35;43.09
17054;BME280;8643;48.824;11.422;2022-08-01T11:01:23;97036.91;;;28.14;43.85
17054;BME280;8643;48.824;11.422;2022-08-01T11:04:06;97020.06;;;28.91;41.77
17054;BME280;8643;48.824;11.422;2022-08-01T11:06:52;97023.44;;;28.34;43.17
17054;BME280;8643;48.824;11.422;2022-08-01T11:09:27;97029.06;;;27.92;45.80
17054;BME280;8643;48.824;11.422;2022-08-01T11:12:08;97028.22;;;27.50;45.57
17054;BME280;8643;48.824;11.422;2022-08-01T11:15:23;97021.22;;;27.08;48.03
17054;BME280;8643;48.824;11.422;2022-08-01T11:17:59;97026.25;;;26.68;47.75
17054;BME280;8643;48.824;11.422;2022-08-01T11:20:30;97032.22;;;26.13;49.93
17054;BME280;8643;48.824;11.422;2022-08-01T11:23:26;97019.56;;;26.05;49.44
17054;BME280;8643;48.824;11.422;2022-08-01T11:26:14;97016.94;;;25.94;50.56
17054;BME280;8643;48.824;11.422;2022-08-01T11:29:10;97016.47;;;26.20;49.60
17054;BME280;8643;48.824;11.422;2022-08-01T11:31:47;97019.75;;;26.34;49.92
17054;BME280;8643;48.824;11.422;2022-08-01T11:34:15;97015.50;;;26.26;48.54
17054;BME280;8643;48.824;11.422;2022-08-01T11:36:44;97025.81;;;26.49;49.12
17054;BME280;8643;48.824;11.422;2022-08-01T11:39:29;97020.94;;;26.53;48.21
17054;BME280;8643;48.824;11.422;2022-08-01T11:42:18;97026.31;;;26.81;48.40
17054;BME280;8643;48.824;11.422;2022-08-01T11:44:50;97019.63;;;27.24;47.84
17054;BME280;8643;48.824;11.422;2022-08-01T11:47:48;97016.81;;;28.54;45.36
17054;BME280;8643;48.824;11.422;2022-08-01T11:50:35;97021.03;;;28.07;44.64
17054;BME280;8643;48.824;11.422;2022-08-01T11:53:07;97017.03;;;27.17;46.51
17054;BME280;8643;48.824;11.422;2022-08-01T11:55:45;97020.75;;;27.59;45.79
17054;BME280;8643;48.824;11.422;2022-08-01T11:58:22;97013.88;;;28.83;43.75
17054;BME280;8643;48.824;11.422;2022-08-01T12:00:58;97013.53;;;28.94;43.52
17054;BME280;8643;48.824;11.422;2022-08-01T12:03:31;97016.66;;;28.19;43.48
17054;BME280;8643;48.824;11.422;2022-08-01T12:06:00;97023.41;;;28.22;45.13
17054;BME280;8643;48.824;11.422;2022-08-01T12:08:31;97009.38;;;29.69;42.31
17054;BME280;8643;48.824;11.422;2022-08-01T12:11:04;97000.81;;;29.37;43.47
17054;BME280;8643;48.824;11.422;2022-08-01T12:13:40;96996.13;;;29.08;41.73
17054;BME280;8643;48.824;11.422;2022-08-01T12:16:11;97005.00;;;30.12;40.24
17054;BME280;8643;48.824;11.422;2022-08-01T12:18:42;97003.06;;;30.31;42.57
17054;BME280;8643;48.824;11.422;2022-08-01T12:21:11;97002.69;;;30.82;41.26
17054;BME280;8643;48.824;11.422;2022-08-01T12:23:39;97009.34;;;29.82;42.14
17054;BME280;8643;48.824;11.422;2022-08-01T12:26:08;97000.66;;;29.54;43.97
17054;BME280;8643;48.824;11.422;2022-08-01T12:28:56;97004.66;;;29.43;43.18
17054;BME280;8643;48.824;11.422;2022-08-01T12:31:32;97003.69;;;29.24;43.61
17054;BME280;8643;48.824;11.422;2022-08-01T12:34:29;96992.84;;;28.62;42.92
17054;BME280;8643;48.824;11.422;2022-08-01T12:37:01;96992.44;;;28.99;43.85
17054;BME280;8643;48.824;11.422;2022-08-01T12:39:33;96999.22;;;30.15;40.33
17054;BME280;8643;48.824;11.422;2022-08-01T12:42:08;97005.78;;;31.43;39.88
17054;BME280;8643;48.824;11.422;2022-08-01T12:44:39;96998.91;;;32.52;36.59
17054;BME280;8643;48.824;11.422;2022-08-01T12:47:09;96991.72;;;32.42;35.86
17054;BME280;8643;48.824;11.422;2022-08-01T12:49:42;96995.91;;;31.48;36.81
17054;BME280;8643;48.824;11.422;2022-08-01T12:52:11;96989.69;;;30.22;38.90
17054;BME280;8643;48.824;11.422;2022-08-01T12:55:09;96989.56;;;30.57;39.37
17054;BME280;8643;48.824;11.422;2022-08-01T12:57:41;96986.91;;;30.63;39.10
17054;BME280;8643;48.824;11.422;2022-08-01T13:00:16;96992.91;;;28.84;42.78
17054;BME280;8643;48.824;11.422;2022-08-01T13:02:47;96994.69;;;28.14;44.50
17054;BME280;8643;48.824;11.422;2022-08-01T13:05:17;96981.47;;;27.98;45.31
17054;BME280;8643;48.824;11.422;2022-08-01T13:07:48;96978.50;;;28.57;42.31
17054;BME280;8643;48.824;11.422;2022-08-01T13:10:26;96976.50;;;29.97;41.46
17054;BME280;8643;48.824;11.422;2022-08-01T13:12:58;96976.13;;;30.70;37.66
17054;BME280;8643;48.824;11.422;2022-08-01T13:15:32;96983.47;;;31.27;38.47
17054;BME280;8643;48.824;11.422;2022-08-01T13:18:26;96972.97;;;31.65;37.45
17054;BME280;8643;48.824;11.422;2022-08-01T13:21:13;96959.34;;;32.24;37.79
17054;BME280;8643;48.824;11.422;2022-08-01T13:24:00;96966.19;;;31.43;36.70
17054;BME280;8643;48.824;11.422;2022-08-01T13:26:45;96958.00;;;30.49;38.12
17054;BME280;8643;48.824;11.422;2022-08-01T13:29:16;96957.56;;;30.29;39.27
17054;BME280;8643;48.824;11.422;2022-08-01T13:31:45;96952.19;;;30.53;37.16
17054;BME280;8643;48.824;11.422;2022-08-01T13:34:15;96955.88;;;30.72;38.41